22ème Rallye Terre des Causses
Championnat de France des Rallyes sur Terre
1 1 CUOQ Jean-Marie/GRANDEMANGE Marielle Citroën C4 WRC FA 8W 55:17,2 1
2 3 MAURIN Julien/URAL Olivier Citroën DS3 WRC A 8W 56:01,7 +00:44,5 +00:44,5 1
3 11 GILBERT Quentin/JAMOUL Renaud Skoda Fabia R5 R 5 58:03,8 +02:46,6 +02:02,1
4 4 DURBEC Thibault/RENUCCI Jacques-Julien Citroën DS3 WRC A 8W 58:13,7 +02:56,5 +00:09,9 1
5 12 BERFA Jordan/AUGUSTIN Damien HUYNDAI i20 R5 R 5 58:31,6 +03:14,4 +00:17,9 1
6 18 PONS Xavier/ORIOL Julia Peugeot 208 T16 R 5 59:04,0 +03:46,8 +00:32,4
7 14 FALCO Jean-Marc/BOUERI Jonathan Peugeot 208 T16 R 5 59:44,0 +04:26,8 +00:40,0 1
8 9 FERAUD Cyrille/DUCHEMIN Aymeric Citroën C4 WRC FA 8W 1:00:12,5 +04:55,3 +00:28,5 1
9 5 CHAYNES Gary/TRIBOUT Christian Citroën C4 WRC FA 8W 1:01:18,9 +06:01,7 +01:06,4 1
10 7 CLOT Charles/LEON Thierry Ford Fiesta WRC A 8W 1:01:58,6 +06:41,4 +00:39,7 1
11 16 PETIT Jean-Eric/MAURIN Mathieu Ford Fiesta R5 R 5 1:02:06,3 +06:49,1 +00:07,7 1
12 8 RAOUX Jean-Michel/MAGAT Laurent Citroën DS3 WRC A 8W 1:02:06,8 +06:49,6 +00:00,5 1
13 6 ROUSSET Eric/GOSSET Jean-David Citroën Xsara WRC FA 8W 1:02:44,8 +07:27,6 +00:38,0
14 54 PELLIER Laurent/NEYRET-GIGOT Benoît Peugeot 208 VTI R 2 1:02:57,3 +07:40,1 +00:12,5 3
15 59 RIBAUD Quentin/BALME Benoît Peugeot 208 VTI R 2 1:03:12,5 +07:55,3 +00:15,2 1 2 3
16 60 LARIO Taisko/RYYNANEN Sami Peugeot 208 VTI R 2 1:03:18,2 +08:01,0 +00:05,7 3
17 40 MARTI Christian/LAVIALE Jean-Marc Mitsubishi Lancer Evo9 N 4 1:03:23,5 +08:06,3 +00:05,3 1
18 61 GAGO Diogo/DEL BARRIO GARCIA Rodolfo Peugeot 208 VTI R 2 1:03:29,5 +08:12,3 +00:06,0 3
19 50 VEYRARD Didier/TARDY Vincent Subaru Impreza STI FN 4 1:03:53,0 +08:35,8 +00:23,5
20 57 LLARENA Efren/FERNANDEZ Sara Peugeot 208 VTI R 2 1:03:55,8 +08:38,6 +00:02,8 3
21 62 SAHILA Aki/SUORSA Rami Peugeot 208 VTI R 2 1:04:01,7 +08:44,5 +00:05,9 3
22 10 "PIANO"/COTTU Paolo Subaru Impreza WRC FA 8W 1:04:08,0 +08:50,8 +00:06,3
23 27 TARDY Guillaume/CHOUDEY Marc-Emilien Subaru Impreza FA 8 1:04:08,1 +08:50,9 +00:00,1
24 70 PINHEIRO Karl-Alexandre/LE FLOCH Franck Peugeot 208 VTI R 2 1:04:30,6 +09:13,4 +00:22,5 3
25 19 MORDACQ Arnaud/RATIER Marie-Noelle Mitsubishi Lancer Evo9 N 4 1:04:32,1 +09:14,9 +00:01,5 1
26 15 BESSON Jean-Pascal/ROISSAC Patrice Skoda Fabia R5 R 5 1:04:35,9 +09:18,7 +00:03,8 1
27 36 SALIN Daniel/SALIN Brigitte Subaru Impreza WRX R 4 1:04:39,5 +09:22,3 +00:03,6
28 37 DESANGLES Yanis/THERON Nicolas Subaru Impreza WRX R 4 1:04:46,8 +09:29,6 +00:07,3
29 20 GAIDOZ Hervé/RICHARD François Subaru Impreza WRX FA 8 1:05:05,4 +09:48,2 +00:18,6 1
30 65 BOSCH Florentin/LAZZARINI Jean-Paul Peugeot 208 VTI R 2 1:05:14,1 +09:56,9 +00:08,7 3
31 63 WAGEMANS Joachim/DU PAN Anton Peugeot 208 VTI R 2 1:05:27,5 +10:10,3 +00:13,4 3
32 30 CHIAVARO Daniel/DUPANLOUP Alexandra Subaru Impreza Sti FA 8 1:05:31,3 +10:14,1 +00:03,8
33 72 TAVENEAU Sam/POINT Clément Peugeot 208 VTI R 2 1:05:37,8 +10:20,6 +00:06,5 3
34 42 CONDAMINES Florian/DELMAS Cyril Subaru Impreza N 4 1:05:39,6 +10:22,4 +00:01,8
35 21 GIRAUD Emmanuel/GIRAUD Grégory Mitsubishi Lancer Evo8 FA 8 1:05:52,7 +10:35,5 +00:13,1
36 17 FRAU Richard/GASTINEL Jean-Francois Ford Fiesta R5 R 5 1:05:59,7 +10:42,5 +00:07,0 1
37 83 MARCHAL Eddy/JOLE Damien Citroën Saxo T4 FA 6K 1:06:03,2 +10:46,0 +00:03,5 1
38 75 VENTURINI Henri/CORONA Fabrice Peugeot 208 VTI R 2 1:06:07,0 +10:49,8 +00:03,8 3
39 41 FONTAINE Fabien/FONTAINE Bastien Mitsubishi Lancer Evo5 FN 4 1:06:28,5 +11:11,3 +00:21,5
40 52 JULIA David/AUBERTIN Ludovic Peugeot 206 Rc F2 14 1:06:34,4 +11:17,2 +00:05,9 1 2
41 124 MASCLAUX Arnaud/CORMERAIS Loïc Renault Clio Ragnotti F2 14 1:06:38,0 +11:20,8 +00:03,6 1 2
42 44 GUIGNARD Eric/MEFFRE Didier Subaru Impreza N 4 1:06:41,1 +11:23,9 +00:03,1
43 81 VIALLE Lilian/GHIRARDELLO Manuel Renault Clio R3 R 3 1:06:43,1 +11:25,9 +00:02,0 1 2
44 23 FILLAYRE Jacques/DERRE Cyril Mitsubishi Lancer Evo4 FA 8 1:06:43,8 +11:26,6 +00:00,7
45 53 VITAL Jean-Pierre/DECOUZON Pierre Citroën Saxo VTS F2 13 1:06:49,0 +11:31,8 +00:05,2 1 2
46 43 PUEL Gérard/PUEL Caroline Mitsubishi Lancer Evo8 FN 4 1:06:55,0 +11:37,8 +00:06,0
47 35 MORDACQ Laurent/MORTIER Hervé Mitsubishi Lancer Evo9 R 4 1:06:59,9 +11:42,7 +00:04,9 1
48 87 SALGUES Gilles/MOUYSSET Jérôme Citroën Saxo T4 FA 6K 1:07:05,4 +11:48,2 +00:05,5
49 116 RAYNAUD Gabriel/JULIEN William Seat Ibiza GTI F2 14 1:07:27,0 +12:09,8 +00:21,6 1 2
50 38 MOREL Jean-Luc/GIDEL Philippe Subaru Impreza WRX FN 4 1:07:33,2 +12:16,0 +00:06,2
51 76 COLNEY Thierry/FORTMANN Patrick Citroën DS3 R3 R 3 1:07:33,8 +12:16,6 +00:00,6 1 2
52 73 MOLLARD Alexandre/EYMIN PETOT Nicolas Peugeot 208 VTI R 2 1:07:48,7 +12:31,5 +00:14,9 3
53 46 LOPEZ Yannick/LOPEZ Brice Subaru Impreza WRX N 4 1:07:51,2 +12:34,0 +00:02,5
54 95 GOUY Quentin/THILLIEZ Quentin Citroën C2 R2 R 2 1:07:54,5 +12:37,3 +00:03,3
55 48 PRIOLO Laurent/DALMAS Yannick Mitsubishi Lancer Evo9 N 4 1:08:00,7 +12:43,5 +00:06,2
56 86 MARCOBAL Thierry/MARCOBAL-BASTIDE Cantin Citroën Saxo T4 FA 6K 1:08:08,4 +12:51,2 +00:07,7
57 71 RAMBAUD Sébastien/RICOU Brice Peugeot 208 VTI R 2 1:08:17,0 +12:59,8 +00:08,6 3
58 132 SABATIER Florent/SANTIAGO Thomas Peugeot 106 S16 FA 6 1:08:43,5 +13:26,3 +00:26,5 1 2
59 80 GUINCHARD Emmanuel/CHATELAIN Mickaël Peugeot 207 Rc R 3 1:08:49,5 +13:32,3 +00:06,0
60 99 FOTIA Anthony/MILLET Kévin Ford Fiesta R2 R 2 1:09:05,1 +13:47,9 +00:15,6
61 90 COLOMBE Geoffroy/FABREGUE Régis Peugeot 206 XS FA 6K 1:09:32,2 +14:15,0 +00:27,1
62 113 BLANCK Lionel/BLANCK Arnaud Peugeot 206 Rc F2 14 1:09:32,4 +14:15,2 +00:00,2
63 98 DEFANTE Romain/TEMPIER Romain Ford Fiesta R2 R 2 1:09:41,1 +14:23,9 +00:08,7
64 91 BERTON Charlotte/TAILLANDIER Thomas Citroën Saxo T4 FA 6K 1:09:42,7 +14:25,5 +00:01,6
65 67 JAMET Jérémy/SECACHE Michaël Peugeot 208 VTI R 2 1:09:47,7 +14:30,5 +00:05,0 3
66 89 CREPIN Maude/FRANCOIS Léa Citroën Saxo T4 FA 6K 1:09:53,3 +14:36,1 +00:05,6
67 102 SOUFFEZ Frédéric/PRUVOST Astrid Peugeot 206 Rc FA 7 1:09:53,8 +14:36,6 +00:00,5 1 2
68 64 HAIGH-SMITH Ashley/BURNS Niall Peugeot 208 VTI R 2 1:09:57,6 +14:40,4 +00:03,8 3
69 125 BELLIARDO Daniel/BRAQUET Jean-Baptiste Peugeot 306 S16 FN 3 1:09:57,7 +14:40,5 +00:00,1
70 97 MARGAILLAN Hugo/POUJOL Sébastien Ford Fiesta R2 R 2 1:10:03,5 +14:46,3 +00:05,8
71 111 PILLARD Cédric/NOHARET Laurent Peugeot 206 Rc F2 14 1:10:15,3 +14:58,1 +00:11,8 1 2
72 96 PUVERIC Gilles/LE BORGNE Didier Peugeot 208 VTI R 2 1:10:26,2 +15:09,0 +00:10,9
73 77 DAZY Jean-Pierre/LOIZEAUX Didier Renault Clio R3 R 3 1:10:51,3 +15:34,1 +00:25,1 1 2
74 149 RICHAUD Pascal/SENDJAKEDINE Mikael Suzuki Swift Sport FN 2 1:11:14,2 +15:57,0 +00:22,9 1 2
75 88 QUARROZ Damien/VOLPI Cécile Citroën Saxo T4 FA 6K 1:11:17,2 +16:00,0 +00:03,0
76 117 ROUCOULY Mathieu/GILHODES Jean-Louis Peugeot 309 GTI 16S F2 14 1:11:19,2 +16:02,0 +00:02,0
77 115 MORARD Philippe/GROLIER Cédric Citroën ZX 16V F2 14 1:11:35,8 +16:18,6 +00:16,6
78 112 REGORD Hervé/REGORD Camille Peugeot 205 GTI F2 14 1:11:56,4 +16:39,2 +00:20,6 1 2
79 145 BRISSON Eddy/MASSON Pascal Suzuki Swift FN 2 1:11:59,1 +16:41,9 +00:02,7
80 127 LESCURE Philippe/ESCAICH Bertrand Peugeot 306 S16 FN 3 1:12:03,5 +16:46,3 +00:04,4
81 78 BOUCHET Guillaume/BLAMPEY Fabien Peugeot 207 Rc R 3 1:12:10,5 +16:53,3 +00:07,0
82 92 BRENIAUX Sébastien/JACQUES Anthony Peugeot 206 XS FA 6K 1:12:16,6 +16:59,4 +00:06,1
83 120 RIEU Vincent/DEIXONNE Charles Renault Clio Ragnotti F2 14 1:12:34,7 +17:17,5 +00:18,1
84 45 ECK Jean-Luc/ECK Aurélien Subaru Impreza N 4 1:12:35,7 +17:18,5 +00:01,0
85 134 RALITE Christophe/ABBAL Marie Peugeot 106 S16 FA 6 1:12:54,2 +17:37,0 +00:18,5
86 126 VANTILLARD Jean-Marc/DARRAS Pascaline Peugeot 206 Rc FN 3 1:12:58,7 +17:41,5 +00:04,5
87 135 RAMEL Olivier/BODENMANN Jacques-Victor Peugeot 106 GT FA 6 1:13:31,1 +18:13,9 +00:32,4
88 47 CAMPAGNOLI Gabriele/ARENA Nicola Subaru Impreza WRX N 4 1:13:39,5 +18:22,3 +00:08,4
89 136 FOURNIER Nicolas/VATTEAU Kévin Peugeot 206 XS F2 13 1:13:45,3 +18:28,1 +00:05,8
90 106 GELLUSSEAU Luc/DEJOUX Charly Peugeot 306 S16 FA 7 1:15:13,4 +19:56,2 +01:28,1
91 146 DOLGOPYATOFF Damien/FRANCOIS Solene Suzuki Swift FN 2 1:15:43,6 +20:26,4 +00:30,2
92 140 VAYSSE Adrien/LAURENS Clément Peugeot 106 S16 F2 13 1:16:09,6 +20:52,4 +00:26,0
93 151 ROCHE Ivan/GREVOT Florian Peugeot 106 XSI F2 12 1:16:13,9 +20:56,7 +00:04,3 1 2
94 148 LATIEZE Yvan/GOUY Cindy Peugeot 106 S16 FN 2 1:16:16,2 +20:59,0 +00:02,3
95 142 BRENGUES Jean-Marie/BRENGUES Mélanie Peugeot 205 GTI F2 13 1:16:19,1 +21:01,9 +00:02,9
96 150 VAILLE Mickaël/SAVA-LOPEZ Sabrina Peugeot 205 GTI FN 2 1:16:32,6 +21:15,4 +00:13,5
97 152 VUITTENEZ Victorien/COTE COLISSON Maxime Peugeot 106 XSI FN 1 1:16:52,8 +21:35,6 +00:20,2
98 139 GELY Michel/VALENTIN Cédric Peugeot 206 XS F2 13 1:17:03,4 +21:46,2 +00:10,6
99 31 MARON-GIRARD Alain/GRENIER Bernard Mitsubishi Lancer Evo9 FA 8 1:17:08,7 +21:51,5 +00:05,3
100 104 FRELAUT Yohann/CASSAGNADE Pascal Peugeot 206 Rc FA 7 1:18:08,0 +22:50,8 +00:59,3
101 153 CEUGNET Sébastien/LUCON Pascal Peugeot 106 XSI FN 1 1:18:40,0 +23:22,8 +00:32,0
102 108 GUILLON Jean-Luc/GUILLON Thibault Peugeot 206 GT FA 7 1:18:41,0 +23:23,8 +00:01,0
103 137 RAKOTOMALALA Andry/GORGET Chloé Peugeot 106 S16 F2 13 1:19:31,5 +24:14,3 +00:50,5
104 130 RESSOUCHE Charlotte/BARDOUX Pauline Ford Fiesta ST N 3 1:19:40,0 +24:22,8 +00:08,5
105 26 GLEY Jean-Pierre/AUBANEL Aurélien B.M.W. 325 iX FA 8 1:20:10,4 +24:53,2 +00:30,4
106 154 BES Yves/LE PICHON Christelle Peugeot 106 XR F2 11 1:21:51,3 +26:34,1 +01:40,9
107 105 GAUTHIER Bernard/BLANQUET Muriel Peugeot 306 S16 FA 7 1:23:43,6 +28:26,4 +01:52,3
108 141 PICARD Erick/PONTILLE Hervé Dacia Logan F2 13 1:25:12,0 +29:54,8 +01:28,4
109 144 TODESCHINI Florent/PORCHERON Giovanni Dacia Logan F2 13 1:25:38,2 +30:21,0 +00:26,2
110 147 DI PAOLO Alain/MORILLON Frederika Peugeot 106 S16 FN 2 1:27:01,3 +31:44,1 +01:23,1
111 103 TEVELLE Cédric/FACCIO Alexandra Peugeot 206 Rc FA 7 1:30:19,1 +35:01,9 +03:17,8
112 119 MOULIN François/BONNET Dorine Renault Clio RS F2 14 1:44:51,1 +49:33,9 +14:32,0
113 39 BENIER Thomas/PRASSE Cédric Subaru Impreza WRX N 4 4:07:36,6 +3:12:19,4 +2:22:45,5 1
114 69 AUTIERO Matthieu/ANDREU Axel Peugeot 208 VTI R 2 4:19:40,6 +3:24:23,4 +12:04,0 3
115 94 JOUINES Jean/CHABBERT Martin Opel Adam Rally R FR2 4:19:46,6 +3:24:29,4 +00:06,0
116 155 SOUBIROUX Vincent/VIGUIE Florian Renault Clio F2 11 4:27:58,9 +3:32:41,7 +08:12,3
117 114 BOUZID Lilian/VERGNES Antony Peugeot 306 S16 F2 14 4:41:47,6 +3:46:30,4 +13:48,7
118 123 BALMONET/MONICO Celia Peugeot 309 GTI F2 14 4:42:55,5 +3:47:38,3 +01:07,9
119 122 VIDAL Marc/MONTARON Loïc Peugeot 309 GTI F2 14 4:45:18,3 +3:50:01,1 +02:22,8
120 110 CLEMENT Frédéric/COSTES François Peugeot 206 GT F2 14 4:46:21,0 +3:51:03,8 +01:02,7 1 2
121 2 BAUD Lionel/CRAEN Fabien Ford Focus WRC A 8W 5:03:18,8 +4:08:01,6 +16:57,8 1
122 118 SANHES Yves/SANHES Christine B.M.W. 318i Compact F2 14 5:05:25,7 +4:10:08,5 +02:06,9
123 68 CUFFI Tommaso/BOSI Massimiliano Peugeot 208 VTI R 2 5:05:48,6 +4:10:31,4 +00:22,9 3
124 66 MAISANO Brandon/PEBEYRE Pierre Peugeot 208 VTI R 2 5:06:32,8 +4:11:15,6 +00:44,2 3
125 22 LOPEZ Etienne/MERCIER Marjorie Subaru Impreza WRX FA 8 5:13:46,0 +4:18:28,8 +07:13,2
126 100 VATANEN Max/BEURET Mélinda Ford Fiesta R2 R 2 5:40:45,6 +4:45:28,4 +26:59,6
127 133 CHOQUER Mickaël/GROULIER Vincent Peugeot 206 XS FA 6 5:42:03,6 +4:46:46,4 +01:18,0
Clt Equipage Voiture Gr/Cl Temps Ecart 1er Ecart préc. Catégories
Commentaires: © PatricK Soft  
(Temps forfaitaires=couleur bleue)
Classés:127

Epreuve: Groupe: Catégorie:

 
Retour
Classement après ES7-Montsales - La Teulière (15.000 km)